Impacts TAF Board
For situational awareness. Not to be used for flight planning purposes.
IDs:

KASE - Aspen/Pitkin Cnty, CO, US

Issued at 2056 UTC 21 May 2022
Updated at 2228 UTC 21 May 2022
Potential Impact None Slight Moderate High
Time2153Z 21/23Z 22/00Z 22/01Z 22/02Z 22/03Z 22/04Z 22/05Z 22/06Z 22/07Z 22/08Z 22/09Z 22/10Z 22/11Z>>
Type OBS PRVL PRVL PRVL PRVL PRVL PRVL PRVL PRVL PRVL PRVL PRVL PRVL PRVL
VIS 10 >6 >6 >6 >6 >6 >6 >6 >6 >6 >6 >6 >6 >6
CIG 90 60 60 80 80 100 100 100 100 100 100 100 100 100
Cover BKN BKN BKN BKN BKN BKN BKN BKN BKN BKN BKN BKN BKN BKN
FltCat VFR VFR VFR VFR VFR VFR VFR VFR VFR VFR VFR VFR VFR VFR
WX -- VCSH VCSH VCSH VCSH -- -- -- -- -- -- -- -- --
WDir 330 310 310 260 260 200 200 200 200 200 200 200 200 200
WSpd 10 8 8 7 7 6 6 6 6 6 6 6 6 6
WGst 18 -- -- -- -- -- -- -- -- -- -- -- -- --
WSHgt -- -- -- -- -- -- -- -- -- -- -- -- -- --
WSDir -- -- -- -- -- -- -- -- -- -- -- -- -- --
WSSpd -- -- -- -- -- -- -- -- -- -- -- -- -- --
Raw TAF
KASE 212056Z 2121/2218 31008KT P6SM VCSH SCT040 BKN060
  FM220100 26007KT P6SM VCSH SCT050 BKN080
  FM220300 20006KT P6SM SCT070 BKN100
  FM221200 22006KT P6SM SCT045 BKN100


Raw METAR
KASE 212153Z 33010G18KT 10SM FEW050 SCT070 BKN090 08/M04 A3012 RMK AO2 SLP148 T00781044
KASE 212053Z COR 33007G16KT 10SM SCT049 BKN065 08/M04 A3012 RMK AO2 SLP153 T00781044 56003
KASE 211953Z 36004KT 10SM FEW044 BKN060 06/M04 A3012 RMK AO2 SLP157 T00611039

METAR Board
Radar Display
Forecast Discussion
For situational awareness. Not to be used for flight planning purposes.